createdAt,value
2018-05-11T00:00:13.525Z,15.94
2018-05-11T00:01:23.270Z,15.94
2018-05-11T00:02:33.287Z,15.85
2018-05-11T00:03:43.304Z,15.85
2018-05-11T00:04:52.788Z,15.8
2018-05-11T00:06:02.547Z,15.78
2018-05-11T00:07:12.287Z,15.92
2018-05-11T00:08:22.303Z,15.87
2018-05-11T00:09:31.780Z,15.83
2018-05-11T00:10:41.533Z,15.84
2018-05-11T00:11:51.011Z,15.85
2018-05-11T00:13:01.022Z,15.75
2018-05-11T00:14:11.035Z,15.85
2018-05-11T00:15:20.514Z,15.84
2018-05-11T00:16:30.531Z,15.88
2018-05-11T00:17:40.009Z,15.81
2018-05-11T00:18:49.498Z,15.76
2018-05-11T00:19:59.242Z,15.78
2018-05-11T00:21:08.726Z,15.85
2018-05-11T00:22:18.479Z,15.8
2018-05-11T00:23:28.758Z,15.8
2018-05-11T00:24:38.736Z,15.78
2018-05-11T00:25:48.747Z,15.87
2018-05-11T00:26:58.843Z,15.87
2018-05-11T00:28:08.595Z,15.78
2018-05-11T00:29:18.698Z,15.75
2018-05-11T00:30:28.712Z,15.83
2018-05-11T00:31:38.731Z,15.83
2018-05-11T00:32:48.746Z,15.76
2018-05-11T00:33:58.766Z,15.78
2018-05-11T00:35:08.540Z,15.8
2018-05-11T00:36:18.023Z,15.75
2018-05-11T00:37:27.513Z,15.7
2018-05-11T00:38:37.534Z,15.75
2018-05-11T00:39:47.276Z,15.69
2018-05-11T00:40:57.335Z,15.76
2018-05-11T00:42:06.811Z,15.73
2018-05-11T00:43:16.823Z,15.81
2018-05-11T00:44:26.307Z,15.78
2018-05-11T00:45:36.054Z,15.8
2018-05-11T00:46:45.806Z,15.7
2018-05-11T00:47:55.584Z,15.75
2018-05-11T00:49:05.337Z,15.7
2018-05-11T00:50:15.357Z,15.8
2018-05-11T00:51:25.368Z,15.78
2018-05-11T00:52:35.195Z,15.69
2018-05-11T00:53:45.213Z,15.8
2018-05-11T00:54:55.227Z,15.76
2018-05-11T00:56:05.245Z,15.72
2018-05-11T00:57:15.256Z,15.87
2018-05-11T00:58:25.268Z,15.78
2018-05-11T00:59:34.758Z,15.76
2018-05-11T01:00:44.509Z,15.81
2018-05-11T01:01:54.521Z,15.69
2018-05-11T01:03:04.273Z,15.7
2018-05-11T01:04:14.288Z,15.6
2018-05-11T01:05:24.030Z,15.66
2018-05-11T01:06:34.040Z,15.62
2018-05-11T01:07:44.072Z,15.6
2018-05-11T01:08:53.547Z,15.52
2018-05-11T01:10:02.757Z,15.5
2018-05-11T01:11:12.768Z,15.45
2018-05-11T01:12:22.787Z,15.5
2018-05-11T01:13:32.803Z,15.44
2018-05-11T01:14:42.815Z,15.45
2018-05-11T01:15:52.824Z,15.47
2018-05-11T01:17:03.047Z,15.36
2018-05-11T01:18:12.730Z,15.5
2018-05-11T01:19:22.475Z,15.44
2018-05-11T01:20:32.520Z,15.41
2018-05-11T01:21:42.266Z,15.39
2018-05-11T01:22:52.282Z,15.35
2018-05-11T01:24:02.299Z,15.33
2018-05-11T01:25:11.781Z,15.32
2018-05-11T01:26:21.801Z,15.32
2018-05-11T01:27:31.813Z,15.29
2018-05-11T01:28:41.567Z,15.32
2018-05-11T01:29:51.310Z,15.23
2018-05-11T01:31:01.055Z,15.22
2018-05-11T01:32:11.065Z,15.22
2018-05-11T01:33:21.080Z,15.22
2018-05-11T01:34:30.838Z,15.15
2018-05-11T01:35:40.851Z,15.17
2018-05-11T01:36:50.606Z,15.17
2018-05-11T01:38:00.363Z,15.12
2018-05-11T01:39:10.385Z,15.18
2018-05-11T01:40:20.404Z,15.18
2018-05-11T01:41:30.152Z,15.08
2018-05-11T01:42:40.158Z,15.11
2018-05-11T01:43:50.173Z,15.07
2018-05-11T01:45:00.183Z,14.93
2018-05-11T01:46:09.928Z,14.68
2018-05-11T01:47:19.405Z,14.71
2018-05-11T01:48:29.422Z,14.52
2018-05-11T01:49:39.440Z,14.49
2018-05-11T01:50:49.554Z,14.45
2018-05-11T01:51:59.301Z,14.43
2018-05-11T01:53:09.049Z,14.37
2018-05-11T01:54:19.061Z,14.36
2018-05-11T01:55:29.077Z,14.38
2018-05-11T01:56:38.823Z,14.38
2018-05-11T01:57:48.567Z,14.43
2018-05-11T01:58:58.588Z,14.36
2018-05-11T02:00:08.610Z,14.37
2018-05-11T02:01:18.624Z,14.3
2018-05-11T02:02:28.726Z,14.41
2018-05-11T02:03:38.478Z,14.36
2018-05-11T02:04:48.496Z,14.4
2018-05-11T02:05:57.972Z,14.4
2018-05-11T02:07:07.721Z,14.43
2018-05-11T02:08:17.476Z,14.43
2018-05-11T02:09:27.503Z,14.45
2018-05-11T02:10:37.515Z,14.38
2018-05-11T02:11:47.533Z,14.41
2018-05-11T02:12:57.280Z,14.41
2018-05-11T02:14:06.763Z,14.34
2018-05-11T02:15:16.780Z,14.4
2018-05-11T02:16:26.524Z,14.37
2018-05-11T02:17:36.546Z,14.44
2018-05-11T02:18:46.153Z,14.4
2018-05-11T02:19:55.911Z,14.34
2018-05-11T02:21:05.392Z,14.4
2018-05-11T02:22:14.867Z,14.38
2018-05-11T02:23:24.351Z,14.44
2018-05-11T02:24:33.823Z,14.4
2018-05-11T02:25:43.835Z,14.33
2018-05-11T02:26:53.955Z,14.41
2018-05-11T02:28:03.784Z,14.41
2018-05-11T02:29:13.796Z,14.43
2018-05-11T02:30:23.827Z,14.44
2018-05-11T02:31:33.094Z,14.37
2018-05-11T02:32:43.116Z,14.37
2018-05-11T02:33:52.614Z,14.3
2018-05-11T02:35:02.398Z,14.36
2018-05-11T02:36:12.495Z,14.31
2018-05-11T02:37:22.442Z,14.3
2018-05-11T02:38:32.453Z,14.25
2018-05-11T02:39:42.221Z,14.25
2018-05-11T02:40:51.701Z,14.3
2018-05-11T02:42:01.719Z,14.22
2018-05-11T02:43:11.468Z,14.25
2018-05-11T02:44:21.226Z,14.26
2018-05-11T02:45:30.978Z,14.22
2018-05-11T02:46:40.736Z,14.3
2018-05-11T02:47:50.485Z,14.22
2018-05-11T02:49:00.521Z,14.26
2018-05-11T02:50:10.544Z,14.18
2018-05-11T02:51:20.297Z,14.15
2018-05-11T02:52:30.052Z,14.19
2018-05-11T02:53:39.804Z,14.2
2018-05-11T02:54:49.843Z,14.12
2018-05-11T02:55:59.859Z,14.15
2018-05-11T02:57:09.627Z,14.22
2018-05-11T02:58:19.378Z,14.11
2018-05-11T02:59:29.147Z,14.12
2018-05-11T03:03:26.465Z,14.2
2018-05-11T03:04:36.224Z,14.23
2018-05-11T03:05:46.074Z,14.25
2018-05-11T03:06:56.096Z,14.23
2018-05-11T03:08:05.842Z,14.28
2018-05-11T03:09:15.865Z,14.28
2018-05-11T03:10:25.975Z,14.31
2018-05-11T03:11:36.140Z,14.28
2018-05-11T03:12:46.173Z,14.38
2018-05-11T03:13:55.918Z,14.28
2018-05-11T03:15:05.404Z,14.38
2018-05-11T03:16:15.440Z,14.26
2018-05-11T03:17:25.519Z,14.31
2018-05-11T03:18:35.959Z,14.33
2018-05-11T03:19:46.347Z,14.37
2018-05-11T03:20:56.378Z,14.31
2018-05-11T03:22:06.128Z,14.36
2018-05-11T03:23:15.615Z,14.36
2018-05-11T03:24:25.626Z,14.34
2018-05-11T03:25:35.102Z,14.36
2018-05-11T03:26:44.856Z,14.3
2018-05-11T03:27:54.866Z,14.31
2018-05-11T03:29:04.611Z,14.36
2018-05-11T03:30:14.359Z,14.37
2018-05-11T03:31:24.126Z,14.36
2018-05-11T03:32:33.876Z,14.34
2018-05-11T03:33:43.632Z,14.43
2018-05-11T03:34:53.379Z,14.41
2018-05-11T03:36:03.388Z,14.36
2018-05-11T03:37:13.138Z,14.44
2018-05-11T03:38:22.882Z,14.34
2018-05-11T03:39:32.894Z,14.4
2018-05-11T03:40:42.639Z,14.43
2018-05-11T03:41:52.382Z,14.48
2018-05-11T03:43:01.853Z,14.38
2018-05-11T03:44:11.600Z,14.34
2018-05-11T03:45:21.352Z,14.37
2018-05-11T03:46:31.363Z,14.44
2018-05-11T03:47:41.380Z,14.44
2018-05-11T03:48:51.129Z,14.43
2018-05-11T03:50:01.148Z,14.36
2018-05-11T03:51:11.162Z,14.34
2018-05-11T03:52:21.177Z,14.36
2018-05-11T03:53:30.658Z,14.44
2018-05-11T03:54:40.678Z,14.33
2018-05-11T03:55:50.709Z,14.38
2018-05-11T03:57:00.723Z,14.41
2018-05-11T03:58:10.470Z,14.4
2018-05-11T03:59:20.218Z,14.4
2018-05-11T04:00:29.699Z,14.45
2018-05-11T04:01:39.176Z,14.4
2018-05-11T04:02:49.180Z,14.41
2018-05-11T04:03:58.929Z,14.31
2018-05-11T04:05:08.688Z,14.41
2018-05-11T04:06:18.701Z,14.41
2018-05-11T04:07:28.709Z,14.37
2018-05-11T04:08:38.724Z,14.26
2018-05-11T04:09:48.468Z,14.26
2018-05-11T04:10:58.571Z,14.31
2018-05-11T04:12:08.591Z,14.13
2018-05-11T04:13:18.827Z,14.11
2018-05-11T04:14:28.596Z,14.07
2018-05-11T04:15:38.615Z,14.05
2018-05-11T04:16:48.372Z,14.08
2018-05-11T04:17:58.127Z,14
2018-05-11T04:19:07.701Z,14.05
2018-05-11T04:20:17.726Z,14.03
2018-05-11T04:21:27.470Z,14.08
2018-05-11T04:22:37.219Z,13.91
2018-05-11T04:23:46.960Z,14.04
2018-05-11T04:24:56.971Z,13.98
2018-05-11T04:26:06.452Z,14.05
2018-05-11T04:27:15.926Z,14.04
2018-05-11T04:28:25.135Z,14.12
2018-05-11T04:29:35.149Z,13.95
2018-05-11T04:30:44.904Z,14.12
2018-05-11T04:31:54.921Z,14.01
2018-05-11T04:33:04.403Z,14.11
2018-05-11T04:34:14.422Z,14.05
2018-05-11T04:35:24.433Z,14.13
2018-05-11T04:36:34.491Z,14.01
2018-05-11T04:37:44.508Z,14.04
2018-05-11T04:38:54.253Z,14.12
2018-05-11T04:40:04.013Z,14.08
2018-05-11T04:41:13.766Z,14.11
2018-05-11T04:42:23.512Z,14.12
2018-05-11T04:43:33.531Z,14.16
2018-05-11T04:44:43.543Z,14.23
2018-05-11T04:45:53.558Z,14.12
2018-05-11T04:47:03.586Z,14.16
2018-05-11T04:48:13.595Z,14.07
2018-05-11T04:49:23.671Z,14.23
2018-05-11T04:50:33.708Z,14.22
2018-05-11T04:51:43.812Z,14.18
2018-05-11T04:52:53.555Z,14.26
2018-05-11T04:54:03.301Z,14.23
2018-05-11T04:55:13.313Z,14.3
2018-05-11T04:56:23.056Z,14.28
2018-05-11T04:57:32.808Z,14.34
2018-05-11T04:58:42.019Z,14.28
2018-05-11T04:59:52.052Z,14.26
2018-05-11T05:01:01.793Z,14.37
2018-05-11T05:02:11.539Z,14.4
2018-05-11T05:03:21.553Z,14.41
2018-05-11T05:04:31.344Z,14.41
2018-05-11T05:05:41.357Z,14.44
2018-05-11T05:06:51.102Z,14.36
2018-05-11T05:08:01.116Z,14.36
2018-05-11T05:09:10.870Z,14.41
2018-05-11T05:10:20.885Z,14.51
2018-05-11T05:11:30.899Z,14.58
2018-05-11T05:12:40.375Z,14.52
2018-05-11T05:13:50.125Z,14.51
2018-05-11T05:14:59.604Z,14.56
2018-05-11T05:16:08.817Z,14.49
2018-05-11T05:17:18.391Z,14.58
2018-05-11T05:18:28.420Z,14.53
2018-05-11T05:19:37.908Z,14.62
2018-05-11T05:20:47.940Z,14.55
2018-05-11T05:21:57.960Z,14.68
2018-05-11T05:23:07.439Z,14.61
2018-05-11T05:24:17.187Z,14.63
2018-05-11T05:25:26.942Z,14.71
2018-05-11T05:26:36.961Z,14.67
2018-05-11T05:27:46.969Z,14.73
2018-05-11T05:28:56.177Z,14.73
2018-05-11T05:30:05.925Z,14.73
2018-05-11T05:31:15.399Z,14.7
2018-05-11T05:32:24.882Z,14.78
2018-05-11T05:33:34.903Z,14.68
2018-05-11T05:34:44.646Z,14.79
2018-05-11T05:35:54.678Z,14.77
2018-05-11T05:37:04.470Z,14.82
2018-05-11T05:38:14.485Z,14.87
2018-05-11T05:39:24.233Z,14.92
2018-05-11T05:40:33.740Z,14.9
2018-05-11T05:41:43.764Z,14.87
2018-05-11T05:42:53.517Z,14.9
2018-05-11T05:44:02.994Z,14.86
2018-05-11T05:45:12.477Z,14.93
2018-05-11T05:46:22.574Z,14.89
2018-05-11T05:47:32.593Z,14.9
2018-05-11T05:48:42.345Z,14.92
2018-05-11T05:49:52.445Z,14.9
2018-05-11T05:51:02.461Z,14.87
2018-05-11T05:52:12.357Z,14.81
2018-05-11T05:53:22.387Z,14.93
2018-05-11T05:54:31.887Z,14.85
2018-05-11T05:55:41.911Z,14.86
2018-05-11T05:56:51.926Z,14.73
2018-05-11T05:58:01.938Z,14.74
2018-05-11T05:59:10.886Z,14.71
2018-05-11T06:00:20.902Z,14.77
2018-05-11T06:01:30.915Z,14.73
2018-05-11T06:02:40.994Z,14.82
2018-05-11T06:03:51.003Z,14.7
2018-05-11T06:05:01.023Z,14.73
2018-05-11T06:06:10.505Z,14.73
2018-05-11T06:07:20.548Z,14.82
2018-05-11T06:08:30.560Z,14.85
2018-05-11T06:09:40.301Z,14.92
2018-05-11T06:10:50.488Z,14.92
2018-05-11T06:12:00.069Z,14.94
2018-05-11T06:13:09.822Z,14.96
2018-05-11T06:14:19.570Z,14.97
2018-05-11T06:15:29.611Z,14.93
2018-05-11T06:16:39.412Z,14.9
2018-05-11T06:17:49.569Z,14.86
2018-05-11T06:18:59.583Z,14.94
2018-05-11T06:20:09.600Z,14.96
2018-05-11T06:21:19.426Z,14.96
2018-05-11T06:22:29.437Z,14.97
2018-05-11T06:23:39.466Z,14.93
2018-05-11T06:24:49.768Z,15.08
2018-05-11T06:25:59.729Z,15.1
2018-05-11T06:27:09.475Z,15
2018-05-11T06:28:19.221Z,15.05
2018-05-11T06:29:28.970Z,14.93
2018-05-11T06:30:38.721Z,14.99
2018-05-11T06:31:48.736Z,14.96
2018-05-11T06:32:58.749Z,14.99
2018-05-11T06:34:08.234Z,14.97
2018-05-11T06:35:18.244Z,14.85
2018-05-11T06:36:28.261Z,14.94
2018-05-11T06:37:38.281Z,14.99
2018-05-11T06:38:48.035Z,14.9
2018-05-11T06:39:57.785Z,14.86
2018-05-11T06:41:07.806Z,14.89
2018-05-11T06:42:17.553Z,14.94
2018-05-11T06:43:27.586Z,14.97
2018-05-11T06:44:37.380Z,14.85
2018-05-11T06:45:47.136Z,14.92
2018-05-11T06:46:57.147Z,14.94
2018-05-11T06:48:06.904Z,14.94
2018-05-11T06:49:16.649Z,15
2018-05-11T06:50:26.660Z,14.86
2018-05-11T06:51:36.410Z,15
2018-05-11T06:52:46.438Z,14.97
2018-05-11T06:53:55.924Z,14.94
2018-05-11T06:55:05.948Z,14.92
2018-05-11T06:56:15.423Z,14.94
2018-05-11T06:57:24.639Z,14.93
2018-05-11T06:58:34.645Z,14.73
2018-05-11T06:59:44.659Z,14.74
2018-05-11T07:00:54.673Z,14.78
2018-05-11T07:02:04.247Z,14.77
2018-05-11T07:03:14.262Z,14.82
2018-05-11T07:04:24.271Z,14.85
2018-05-11T07:05:33.481Z,14.79
2018-05-11T07:06:42.965Z,14.85
2018-05-11T07:07:53.185Z,14.82
2018-05-11T07:09:03.332Z,14.82
2018-05-11T07:10:12.810Z,14.89
2018-05-11T07:11:22.022Z,14.9
2018-05-11T07:12:32.057Z,14.85
2018-05-11T07:13:42.083Z,14.92
2018-05-11T07:14:51.834Z,14.87
2018-05-11T07:16:01.848Z,14.86
2018-05-11T07:17:11.324Z,14.81
2018-05-11T07:18:20.550Z,14.93
2018-05-11T07:19:30.936Z,14.94
2018-05-11T07:20:41.178Z,15.02
2018-05-11T07:21:51.198Z,14.96
2018-05-11T07:23:00.683Z,15.04
2018-05-11T07:24:10.689Z,15.07
2018-05-11T07:25:20.712Z,15.02
2018-05-11T07:26:30.730Z,15.1
2018-05-11T07:27:40.743Z,15.12
2018-05-11T07:28:50.493Z,15.11
2018-05-11T07:30:00.506Z,15.17
2018-05-11T07:31:10.260Z,15.17
2018-05-11T07:32:20.004Z,15.18
2018-05-11T07:33:29.754Z,15.19
2018-05-11T07:34:39.503Z,15.25
2018-05-11T07:35:49.248Z,15.39
2018-05-11T07:36:58.995Z,15.3
2018-05-11T07:38:09.020Z,15.3
2018-05-11T07:39:19.032Z,15.33
2018-05-11T07:40:29.045Z,15.33
2018-05-11T07:41:39.064Z,15.43
2018-05-11T07:42:48.842Z,15.37
2018-05-11T07:43:58.857Z,15.47
2018-05-11T07:45:08.868Z,15.37
2018-05-11T07:46:18.620Z,15.47
2018-05-11T07:47:28.638Z,15.45
2018-05-11T07:48:38.666Z,15.44
2018-05-11T07:49:48.420Z,15.51
2018-05-11T07:50:57.902Z,15.5
2018-05-11T07:52:07.649Z,15.5
2018-05-11T07:53:17.409Z,15.44
2018-05-11T07:54:27.155Z,15.44
2018-05-11T07:55:36.908Z,15.59
2018-05-11T07:56:46.931Z,15.48
2018-05-11T07:57:56.945Z,15.51
2018-05-11T07:59:06.423Z,15.55
2018-05-11T08:00:15.632Z,15.5
2018-05-11T08:01:25.112Z,15.5
2018-05-11T08:02:35.126Z,15.5
2018-05-11T08:03:44.873Z,15.48
2018-05-11T08:04:54.675Z,15.35
2018-05-11T08:06:04.787Z,15.12
2018-05-11T08:07:14.806Z,14.68
2018-05-11T08:08:24.820Z,14.59
2018-05-11T08:09:34.626Z,14.37
2018-05-11T08:10:44.308Z,14.3
2018-05-11T08:11:54.059Z,14.11
2018-05-11T08:13:03.807Z,13.91
2018-05-11T08:14:14.113Z,13.78
2018-05-11T08:15:24.016Z,13.5
2018-05-11T08:16:33.764Z,13.28
2018-05-11T08:17:43.777Z,13.17
2018-05-11T08:18:53.792Z,12.94
2018-05-11T08:20:03.813Z,12.94
2018-05-11T08:21:13.633Z,12.7
2018-05-11T08:22:23.402Z,12.57
2018-05-11T08:23:33.428Z,12.45
2018-05-11T08:24:43.176Z,12.33
2018-05-11T08:25:52.394Z,12.29
2018-05-11T08:27:02.257Z,12.15
2018-05-11T08:28:12.363Z,12.17
2018-05-11T08:29:22.126Z,12.14
2018-05-11T08:30:31.868Z,11.96
2018-05-11T08:31:41.885Z,11.93
2018-05-11T08:32:51.639Z,11.91
2018-05-11T08:34:01.121Z,11.89
2018-05-11T08:35:10.877Z,11.68
2018-05-11T08:36:20.633Z,11.67
2018-05-11T08:37:30.643Z,11.58
2018-05-11T08:38:40.391Z,11.58
2018-05-11T08:39:49.873Z,11.59
2018-05-11T08:40:59.403Z,11.48
2018-05-11T08:42:08.878Z,11.48
2018-05-11T08:43:18.894Z,11.49
2018-05-11T08:44:28.395Z,11.43
2018-05-11T08:45:38.139Z,11.4
2018-05-11T08:46:48.152Z,11.4
2018-05-11T08:47:57.934Z,11.33
2018-05-11T08:49:07.392Z,11.31
2018-05-11T08:50:16.874Z,11.3
2018-05-11T08:51:26.629Z,11.2
2018-05-11T08:52:36.375Z,11.27
2018-05-11T08:53:45.850Z,11.23
2018-05-11T08:54:55.641Z,11.22
2018-05-11T08:56:05.676Z,11.25
2018-05-11T08:57:15.636Z,11.31
2018-05-11T08:58:25.817Z,11.18
2018-05-11T08:59:35.562Z,11.23
2018-05-11T09:00:45.303Z,11.23
2018-05-11T09:01:55.317Z,11.23
2018-05-11T09:03:04.907Z,11.23
2018-05-11T09:04:14.732Z,11.18
2018-05-11T09:05:24.481Z,11.2
2018-05-11T09:06:33.424Z,11.13
2018-05-11T09:07:43.448Z,11.23
2018-05-11T09:08:53.457Z,11.2
2018-05-11T09:10:03.566Z,11.22
2018-05-11T09:11:13.578Z,11.27
2018-05-11T09:12:23.616Z,11.22
2018-05-11T09:13:33.374Z,11.22
2018-05-11T09:14:43.382Z,11.19
2018-05-11T09:15:52.862Z,11.31
2018-05-11T09:17:02.084Z,11.26
2018-05-11T09:18:12.101Z,11.25
2018-05-11T09:19:21.842Z,11.27
2018-05-11T09:20:31.591Z,11.33
2018-05-11T09:21:41.368Z,11.45
2018-05-11T09:22:51.458Z,11.34
2018-05-11T09:24:01.208Z,11.25
2018-05-11T09:25:10.683Z,11.26
2018-05-11T09:26:19.894Z,11.26
2018-05-11T09:27:29.641Z,11.19
2018-05-11T09:28:39.661Z,11.19
2018-05-11T09:29:49.406Z,11.13
2018-05-11T09:30:59.422Z,11.08
2018-05-11T09:32:09.174Z,11.05
2018-05-11T09:33:19.198Z,11
2018-05-11T09:34:28.135Z,11.02
2018-05-11T09:35:37.607Z,11
2018-05-11T09:36:47.081Z,11.04
2018-05-11T09:37:56.825Z,11.04
2018-05-11T09:39:06.582Z,10.97
2018-05-11T09:40:16.587Z,10.94
2018-05-11T09:41:26.064Z,10.84
2018-05-11T09:42:36.073Z,10.84
2018-05-11T09:43:46.079Z,10.72
2018-05-11T09:44:56.097Z,10.76
2018-05-11T09:46:06.115Z,10.71
2018-05-11T09:47:15.858Z,10.65
2018-05-11T09:48:25.862Z,10.62
2018-05-11T09:49:36.264Z,10.64
2018-05-11T09:50:46.367Z,10.51
2018-05-11T09:51:56.388Z,10.49
2018-05-11T09:53:06.398Z,10.49
2018-05-11T09:54:16.415Z,10.53
2018-05-11T09:55:26.162Z,10.48
2018-05-11T09:56:35.743Z,10.49
2018-05-11T09:57:45.218Z,10.49
2018-05-11T09:58:54.974Z,10.51
2018-05-11T10:00:04.983Z,10.46
2018-05-11T10:01:14.730Z,10.46
2018-05-11T10:02:23.669Z,10.49
2018-05-11T10:03:33.411Z,10.49
2018-05-11T10:04:43.420Z,10.46
2018-05-11T10:05:53.172Z,10.43
2018-05-11T10:07:03.210Z,10.41
2018-05-11T10:08:12.948Z,10.3
2018-05-11T10:09:22.427Z,10.41
2018-05-11T10:10:32.443Z,10.3
2018-05-11T10:11:42.449Z,10.31
2018-05-11T10:12:52.472Z,10.31
2018-05-11T10:14:02.611Z,10.31
2018-05-11T10:15:12.358Z,10.36
2018-05-11T10:16:21.848Z,10.42
2018-05-11T10:17:31.860Z,10.39
2018-05-11T10:18:41.607Z,10.21
2018-05-11T10:19:51.617Z,10.36
2018-05-11T10:21:01.781Z,10.38
2018-05-11T10:22:11.788Z,10.3
2018-05-11T10:23:21.808Z,10.31
2018-05-11T10:24:31.551Z,10.33
2018-05-11T10:25:41.670Z,10.28
2018-05-11T10:26:51.412Z,10.39
2018-05-11T10:28:01.237Z,10.33
2018-05-11T10:29:11.451Z,10.23
2018-05-11T10:30:21.467Z,10.28
2018-05-11T10:31:31.209Z,10.33
2018-05-11T10:32:41.221Z,10.3
2018-05-11T10:33:50.971Z,10.2
2018-05-11T10:35:00.710Z,10.13
2018-05-11T10:36:10.730Z,10.1
2018-05-11T10:37:20.735Z,10.13
2018-05-11T10:38:30.745Z,10.17
2018-05-11T10:39:40.492Z,10.12
2018-05-11T10:40:50.598Z,10.15
2018-05-11T10:42:00.353Z,10.17
2018-05-11T10:43:09.826Z,10.17
2018-05-11T10:44:19.569Z,10.15
2018-05-11T10:45:29.316Z,10.1
2018-05-11T10:46:38.876Z,10.07
2018-05-11T10:47:48.623Z,10
2018-05-11T10:48:58.697Z,10.07
2018-05-11T10:50:08.173Z,10.02
2018-05-11T10:51:17.673Z,9.95
2018-05-11T10:52:27.688Z,10.05
2018-05-11T10:53:37.432Z,10.02
2018-05-11T10:54:47.438Z,10.07
2018-05-11T10:55:57.177Z,9.91
2018-05-11T10:57:06.921Z,9.92
2018-05-11T10:58:16.935Z,9.94
2018-05-11T10:59:26.943Z,9.91
2018-05-11T11:00:37.006Z,9.95
2018-05-11T11:01:46.760Z,9.94
2018-05-11T11:02:56.779Z,9.92
2018-05-11T11:04:06.531Z,9.91
2018-05-11T11:05:16.547Z,9.91
2018-05-11T11:06:26.562Z,9.9
2018-05-11T11:07:36.576Z,9.85
2018-05-11T11:08:46.616Z,9.84
2018-05-11T11:09:56.629Z,9.77
2018-05-11T11:11:06.375Z,9.85
2018-05-11T11:12:16.112Z,9.88
2018-05-11T11:13:25.936Z,9.87
2018-05-11T11:14:36.024Z,9.81
2018-05-11T11:15:46.026Z,9.81
2018-05-11T11:16:56.046Z,9.82
2018-05-11T11:18:05.892Z,9.73
2018-05-11T11:19:15.918Z,9.72
2018-05-11T11:20:25.655Z,9.66
2018-05-11T11:21:35.672Z,9.62
2018-05-11T11:22:45.679Z,9.7
2018-05-11T11:23:55.694Z,9.63
2018-05-11T11:25:05.436Z,9.66
2018-05-11T11:26:15.176Z,9.62
2018-05-11T11:27:25.182Z,9.64
2018-05-11T11:28:34.659Z,9.63
2018-05-11T11:29:44.670Z,9.66
2018-05-11T11:30:54.142Z,9.64
2018-05-11T11:32:03.882Z,9.67
2018-05-11T11:33:13.633Z,9.62
2018-05-11T11:34:23.907Z,9.66
2018-05-11T11:35:34.235Z,9.66
2018-05-11T11:36:43.982Z,9.62
2018-05-11T11:37:53.733Z,9.8
2018-05-11T11:39:03.748Z,9.74
2018-05-11T11:40:13.301Z,9.62
2018-05-11T11:41:23.046Z,9.64
2018-05-11T11:42:33.062Z,9.59
2018-05-11T11:43:43.075Z,9.62
2018-05-11T11:44:53.087Z,9.56
2018-05-11T11:46:02.840Z,9.54
2018-05-11T11:47:12.590Z,9.56
2018-05-11T11:48:22.331Z,9.56
2018-05-11T11:49:32.072Z,9.59
2018-05-11T11:50:41.301Z,9.62
2018-05-11T11:51:51.320Z,9.55
2018-05-11T11:53:01.119Z,9.51
2018-05-11T11:54:10.876Z,9.59
2018-05-11T11:55:20.623Z,9.54
2018-05-11T11:56:30.783Z,9.49
2018-05-11T11:57:40.914Z,9.52
2018-05-11T11:58:50.654Z,9.49
2018-05-11T12:00:00.128Z,9.44
2018-05-11T12:01:09.602Z,9.51
2018-05-11T12:02:19.615Z,9.44
2018-05-11T12:03:29.627Z,9.48
2018-05-11T12:04:39.375Z,9.49
2018-05-11T12:05:49.121Z,9.47
2018-05-11T12:06:58.606Z,9.55
2018-05-11T12:08:08.349Z,9.47
2018-05-11T12:09:18.365Z,9.48
2018-05-11T12:10:27.837Z,9.45
2018-05-11T12:11:37.045Z,9.58
2018-05-11T12:12:47.054Z,9.47
2018-05-11T12:13:56.793Z,9.47
2018-05-11T12:15:06.267Z,9.49
2018-05-11T12:16:16.119Z,9.51
2018-05-11T12:17:25.860Z,9.56
2018-05-11T12:18:35.069Z,9.48
2018-05-11T12:19:44.822Z,9.47
2018-05-11T12:20:54.830Z,9.47
2018-05-11T12:22:04.580Z,9.48
2018-05-11T12:23:14.594Z,9.47
2018-05-11T12:24:24.605Z,9.42
2018-05-11T12:25:34.617Z,9.51
2018-05-11T12:26:44.636Z,9.51
2018-05-11T12:27:54.648Z,9.58
2018-05-11T12:29:04.395Z,9.56
2018-05-11T12:30:14.432Z,9.52
2018-05-11T12:31:24.444Z,9.58
2018-05-11T12:32:34.195Z,9.63
2018-05-11T12:33:44.210Z,9.62
2018-05-11T12:34:54.296Z,9.55
2018-05-11T12:36:03.812Z,9.62
2018-05-11T12:37:13.285Z,9.52
2018-05-11T12:38:23.028Z,9.49
2018-05-11T12:39:33.044Z,9.62
2018-05-11T12:40:42.795Z,9.59
2018-05-11T12:41:52.579Z,9.55
2018-05-11T12:43:02.592Z,9.48
2018-05-11T12:44:12.071Z,9.49
2018-05-11T12:45:22.077Z,9.44
2018-05-11T12:46:32.174Z,9.54
2018-05-11T12:47:41.977Z,9.59
2018-05-11T12:48:51.184Z,9.51
2018-05-11T12:50:00.937Z,9.42
2018-05-11T12:51:10.407Z,9.52
2018-05-11T12:52:20.423Z,9.52
2018-05-11T12:53:30.531Z,9.45
2018-05-11T12:54:40.016Z,9.44
2018-05-11T12:55:49.756Z,9.51
2018-05-11T12:56:59.501Z,9.4
2018-05-11T12:58:09.520Z,9.47
2018-05-11T12:59:19.534Z,9.58
2018-05-11T13:00:29.544Z,9.45
2018-05-11T13:01:39.291Z,9.47
2018-05-11T13:02:49.305Z,9.52
2018-05-11T13:03:59.044Z,9.44
2018-05-11T13:05:09.049Z,9.48
2018-05-11T13:06:18.789Z,9.44
2018-05-11T13:07:28.800Z,9.47
2018-05-11T13:08:38.008Z,9.58
2018-05-11T13:09:47.751Z,9.47
2018-05-11T13:10:57.764Z,9.49
2018-05-11T13:12:07.507Z,9.54
2018-05-11T13:13:17.247Z,9.58
2018-05-11T13:14:27.092Z,9.54
2018-05-11T13:15:36.850Z,9.51
2018-05-11T13:16:46.327Z,9.45
2018-05-11T13:17:56.358Z,9.48
2018-05-11T13:19:06.106Z,9.49
2018-05-11T13:20:15.597Z,9.52
2018-05-11T13:21:25.069Z,9.55
2018-05-11T13:22:34.810Z,9.52
2018-05-11T13:23:44.555Z,9.48
2018-05-11T13:24:54.570Z,9.48
2018-05-11T13:26:04.309Z,9.55
2018-05-11T13:27:14.057Z,9.54
2018-05-11T13:28:24.066Z,9.48
2018-05-11T13:29:34.087Z,9.52
2018-05-11T13:30:44.363Z,9.47
2018-05-11T13:31:54.165Z,9.54
2018-05-11T13:33:03.372Z,9.55
2018-05-11T13:34:13.113Z,9.52
2018-05-11T13:35:23.125Z,9.51
2018-05-11T13:36:33.114Z,9.52
2018-05-11T13:37:42.964Z,9.51
2018-05-11T13:38:52.449Z,9.47
2018-05-11T13:40:02.457Z,9.51
2018-05-11T13:41:11.663Z,9.54
2018-05-11T13:42:21.137Z,9.55
2018-05-11T13:43:31.152Z,9.58
2018-05-11T13:44:40.906Z,9.66
2018-05-11T13:45:50.907Z,9.55
2018-05-11T13:47:00.653Z,9.62
2018-05-11T13:48:10.285Z,9.56
2018-05-11T13:49:19.792Z,9.7
2018-05-11T13:50:29.541Z,9.66
2018-05-11T13:51:39.548Z,9.56
2018-05-11T13:52:49.290Z,9.59
2018-05-11T13:53:59.297Z,9.52
2018-05-11T13:55:09.033Z,9.52
2018-05-11T13:56:19.194Z,9.52
2018-05-11T13:57:29.338Z,9.59
2018-05-11T13:58:39.088Z,9.58
2018-05-11T13:59:48.825Z,9.59
2018-05-11T14:00:58.030Z,9.59
2018-05-11T14:02:07.781Z,9.67
2018-05-11T14:03:17.789Z,9.64
2018-05-11T14:04:26.995Z,9.67
2018-05-11T14:05:36.746Z,9.66
2018-05-11T14:06:46.848Z,9.7
2018-05-11T14:07:56.683Z,9.8
2018-05-11T14:09:06.163Z,9.81
2018-05-11T14:10:16.381Z,9.7
2018-05-11T14:11:25.909Z,9.8
2018-05-11T14:12:35.387Z,9.77
2018-05-11T14:13:45.414Z,9.84
2018-05-11T14:14:54.892Z,9.87
2018-05-11T14:16:04.100Z,9.8
2018-05-11T14:17:13.040Z,9.8
2018-05-11T14:18:22.780Z,9.81
2018-05-11T14:19:32.787Z,9.82
2018-05-11T14:20:42.802Z,9.77
2018-05-11T14:21:52.812Z,9.84
2018-05-11T14:23:02.558Z,9.77
2018-05-11T14:24:12.305Z,9.81
2018-05-11T14:25:22.054Z,9.77
2018-05-11T14:26:32.063Z,9.8
2018-05-11T14:27:41.805Z,9.81
2018-05-11T14:28:51.547Z,9.81
2018-05-11T14:30:01.556Z,9.81
2018-05-11T14:31:11.309Z,9.8
2018-05-11T14:32:21.055Z,9.77
2018-05-11T14:33:30.538Z,9.74
2018-05-11T14:34:40.545Z,9.84
2018-05-11T14:35:50.021Z,9.76
2018-05-11T14:36:59.769Z,9.87
2018-05-11T14:38:09.513Z,9.91
2018-05-11T14:39:19.723Z,9.9
2018-05-11T14:40:29.492Z,9.82
2018-05-11T14:41:39.502Z,9.87
2018-05-11T14:42:49.516Z,9.9
2018-05-11T14:43:58.999Z,9.94
2018-05-11T14:45:09.007Z,9.88
2018-05-11T14:46:19.015Z,9.91
2018-05-11T14:47:29.021Z,9.87
2018-05-11T14:48:38.764Z,9.87
2018-05-11T14:49:49.069Z,9.9
2018-05-11T14:50:59.080Z,9.88
2018-05-11T14:52:08.573Z,9.92
2018-05-11T14:53:18.594Z,9.91
2018-05-11T14:54:28.064Z,9.92
2018-05-11T14:55:37.541Z,9.91
2018-05-11T14:56:47.287Z,9.94
2018-05-11T14:57:57.297Z,9.87
2018-05-11T14:59:07.307Z,9.88
2018-05-11T15:00:17.317Z,10
2018-05-11T15:01:27.331Z,10.03
2018-05-11T15:02:37.078Z,9.97
2018-05-11T15:03:46.827Z,9.99
2018-05-11T15:04:56.574Z,10.06
2018-05-11T15:06:06.056Z,9.99
2018-05-11T15:07:16.063Z,10.05
2018-05-11T15:08:25.803Z,10.06
2018-05-11T15:09:35.812Z,10.07
2018-05-11T15:10:45.558Z,10.06
2018-05-11T15:11:55.567Z,10.07
2018-05-11T15:13:05.574Z,10.09
2018-05-11T15:14:15.318Z,10.06